createdAt,value
2022-10-14T00:02:26.586Z,100992.72
2022-10-14T00:04:56.850Z,100966.09
2022-10-14T00:07:26.659Z,100997.03
2022-10-14T00:09:56.343Z,100991.03
2022-10-14T00:12:26.080Z,100987.56
2022-10-14T00:14:56.311Z,100987.59
2022-10-14T00:17:28.942Z,100994.44
2022-10-14T00:19:58.716Z,100991.03
2022-10-14T00:22:28.855Z,100990.19
2022-10-14T00:24:58.759Z,100968.69
2022-10-14T00:27:28.524Z,100923.13
2022-10-14T00:29:58.557Z,100984.28
2022-10-14T00:32:30.866Z,100966.97
2022-10-14T00:35:00.710Z,100977.31
2022-10-14T00:37:33.164Z,100934.22
2022-10-14T00:40:03.599Z,100975.50
2022-10-14T00:42:35.598Z,100965.25
2022-10-14T00:45:10.422Z,100952.31
2022-10-14T00:47:43.307Z,100980.72
2022-10-14T00:50:17.139Z,100980.66
2022-10-14T00:52:47.811Z,100953.31
2022-10-14T00:55:20.290Z,100973.06
2022-10-14T00:57:50.081Z,100965.31
2022-10-14T01:00:21.886Z,100958.34
2022-10-14T01:02:54.277Z,100971.25
2022-10-14T01:05:24.221Z,100955.78
2022-10-14T01:08:06.230Z,100973.91
2022-10-14T01:10:45.261Z,100976.47
2022-10-14T01:13:26.625Z,100967.09
2022-10-14T01:16:11.695Z,100963.66
2022-10-14T01:18:59.595Z,100972.25
2022-10-14T01:21:37.637Z,100918.97
2022-10-14T01:24:35.838Z,100968.88
2022-10-14T01:27:20.790Z,100961.19
2022-10-14T01:30:24.177Z,100957.78
2022-10-14T01:33:06.597Z,100939.69
2022-10-14T01:35:51.582Z,100952.59
2022-10-14T01:38:25.208Z,100950.06
2022-10-14T01:40:59.755Z,100943.19
2022-10-14T01:43:32.477Z,100949.22
2022-10-14T01:46:08.267Z,100956.94
2022-10-14T01:48:43.247Z,100935.34
2022-10-14T01:51:19.082Z,100944.84
2022-10-14T01:53:55.399Z,100942.25
2022-10-14T01:56:27.756Z,100945.59
2022-10-14T01:58:58.541Z,100943.88
2022-10-14T02:01:30.984Z,100940.53
2022-10-14T02:04:00.749Z,100928.59
2022-10-14T02:06:36.491Z,100943.19
2022-10-14T02:09:15.500Z,100922.50
2022-10-14T02:11:58.801Z,100927.69
2022-10-14T02:14:36.335Z,100913.94
2022-10-14T02:17:14.173Z,100936.16
2022-10-14T02:19:48.881Z,100918.22
2022-10-14T02:22:27.627Z,100931.84
2022-10-14T02:25:18.467Z,100903.38
2022-10-14T02:27:51.787Z,100922.34
2022-10-14T02:30:23.447Z,100911.09
2022-10-14T02:33:03.837Z,100924.03
2022-10-14T02:35:36.479Z,100929.22
2022-10-14T02:38:08.433Z,100918.06
2022-10-14T02:40:42.456Z,100919.94
2022-10-14T02:43:13.825Z,100918.22
2022-10-14T02:45:46.230Z,100912.25
2022-10-14T02:48:18.705Z,100901.13
2022-10-14T02:50:48.407Z,100916.63
2022-10-14T02:53:19.511Z,100911.56
2022-10-14T02:55:49.259Z,100918.38
2022-10-14T02:58:19.070Z,100908.03
2022-10-14T03:00:50.907Z,100911.56
2022-10-14T03:03:24.495Z,100904.66
2022-10-14T03:05:54.285Z,100915.81
2022-10-14T03:08:24.645Z,100914.09
2022-10-14T03:10:54.565Z,100899.41
2022-10-14T03:13:25.499Z,100905.44
2022-10-14T03:15:55.319Z,100900.25
2022-10-14T03:18:27.669Z,100909.72
2022-10-14T03:21:03.170Z,100901.94
2022-10-14T03:23:39.105Z,100875.34
2022-10-14T03:26:13.654Z,100894.28
2022-10-14T03:28:46.316Z,100900.25
2022-10-14T03:31:21.930Z,100895.97
2022-10-14T03:34:32.353Z,100877.91
2022-10-14T03:37:09.089Z,100901.84
2022-10-14T03:39:47.478Z,100852.81
2022-10-14T03:42:18.966Z,100904.31
2022-10-14T03:44:50.936Z,100801.03
2022-10-14T03:47:25.243Z,100906.00
2022-10-14T03:49:57.568Z,100902.63
2022-10-14T03:52:34.057Z,100892.19
2022-10-14T03:55:10.243Z,100905.94
2022-10-14T03:57:40.100Z,100899.06
2022-10-14T04:00:12.749Z,100892.97
2022-10-14T04:02:45.450Z,100898.97
2022-10-14T04:05:40.270Z,100886.94
2022-10-14T04:08:17.883Z,100879.09
2022-10-14T04:10:56.616Z,100891.97
2022-10-14T04:13:28.107Z,100871.31
2022-10-14T04:15:57.841Z,100897.09
2022-10-14T04:18:36.297Z,100882.44
2022-10-14T04:21:13.017Z,100893.53
2022-10-14T04:23:45.251Z,100898.75
2022-10-14T04:26:19.051Z,100893.66
2022-10-14T04:28:49.273Z,100883.41
2022-10-14T04:31:33.293Z,100891.22
2022-10-14T04:34:05.347Z,100880.94
2022-10-14T04:36:42.864Z,100882.56
2022-10-14T04:39:28.031Z,100860.97
2022-10-14T04:41:58.456Z,100879.88
2022-10-14T04:44:28.179Z,100884.16
2022-10-14T04:46:58.006Z,100879.81
2022-10-14T04:49:29.288Z,100883.16
2022-10-14T04:52:14.427Z,100898.63
2022-10-14T04:55:03.365Z,100880.44
2022-10-14T04:57:40.402Z,100901.97
2022-10-14T05:00:12.191Z,100888.38
2022-10-14T05:03:02.887Z,100886.66
2022-10-14T05:05:37.489Z,100872.09
2022-10-14T05:08:11.531Z,100884.22
2022-10-14T05:10:44.205Z,100877.31
2022-10-14T05:13:20.778Z,100866.22
2022-10-14T05:16:04.819Z,100867.13
2022-10-14T05:18:36.703Z,100880.88
2022-10-14T05:21:12.681Z,100875.75
2022-10-14T05:24:11.107Z,100878.41
2022-10-14T05:26:43.430Z,100875.88
2022-10-14T05:29:16.100Z,100877.56
2022-10-14T05:31:46.954Z,100862.09
2022-10-14T05:34:27.937Z,100880.19
2022-10-14T05:36:59.325Z,100870.78
2022-10-14T05:39:35.057Z,100875.06
2022-10-14T05:42:05.846Z,100871.59
2022-10-14T05:44:39.050Z,100871.59
2022-10-14T05:47:10.307Z,100874.06
2022-10-14T05:49:40.473Z,100883.56
2022-10-14T05:52:10.230Z,100879.34
2022-10-14T05:54:42.628Z,100878.50
2022-10-14T05:57:16.877Z,100877.66
2022-10-14T05:59:46.671Z,100873.38
2022-10-14T06:02:17.593Z,100876.00
2022-10-14T06:04:47.471Z,100876.88
2022-10-14T06:07:19.269Z,100861.41
2022-10-14T06:09:54.296Z,100851.09
2022-10-14T06:12:25.339Z,100876.06
2022-10-14T06:14:55.540Z,100879.50
2022-10-14T06:17:25.364Z,100877.81
2022-10-14T06:19:56.061Z,100839.16
2022-10-14T06:22:25.798Z,100878.66
2022-10-14T06:25:01.821Z,100878.66
2022-10-14T06:27:34.057Z,100873.47
2022-10-14T06:30:03.852Z,100868.34
2022-10-14T06:32:33.890Z,100873.50
2022-10-14T06:35:03.952Z,100865.84
2022-10-14T06:37:33.678Z,100874.44
2022-10-14T06:40:06.504Z,100877.91
2022-10-14T06:42:37.224Z,100871.91
2022-10-14T06:45:09.318Z,100873.63
2022-10-14T06:47:39.127Z,100876.22
2022-10-14T06:50:10.101Z,100859.94
2022-10-14T06:52:39.923Z,100864.25
2022-10-14T06:55:12.678Z,100868.59
2022-10-14T06:57:43.506Z,100861.72
2022-10-14T07:00:14.230Z,100860.06
2022-10-14T07:02:45.078Z,100866.97
2022-10-14T07:05:17.339Z,100855.03
2022-10-14T07:07:47.220Z,100856.75
2022-10-14T07:10:19.783Z,100855.13
2022-10-14T07:12:49.513Z,100849.13
2022-10-14T07:15:19.498Z,100847.38
2022-10-14T07:17:50.261Z,100854.28
2022-10-14T07:20:20.229Z,100840.63
2022-10-14T07:22:49.980Z,100852.69
2022-10-14T07:25:22.412Z,100849.31
2022-10-14T07:27:54.137Z,100850.19
2022-10-14T07:30:24.133Z,100839.06
2022-10-14T07:32:54.023Z,100831.34
2022-10-14T07:35:25.707Z,100845.13
2022-10-14T07:37:56.956Z,100852.84
2022-10-14T07:40:29.830Z,100859.66
2022-10-14T07:42:59.865Z,100854.34
2022-10-14T07:45:35.210Z,100838.09
2022-10-14T07:48:05.242Z,100847.59
2022-10-14T07:50:35.026Z,100839.88
2022-10-14T07:53:04.847Z,100850.19
2022-10-14T07:55:37.225Z,100856.22
2022-10-14T07:58:07.976Z,100825.22
2022-10-14T08:00:37.832Z,100829.56
2022-10-14T08:03:07.575Z,100842.59
2022-10-14T08:05:38.878Z,100852.91
2022-10-14T08:08:09.265Z,100854.63
2022-10-14T08:10:42.239Z,100821.13
2022-10-14T08:13:11.947Z,100848.69
2022-10-14T08:15:43.742Z,100841.09
2022-10-14T08:18:13.956Z,100836.81
2022-10-14T08:20:43.734Z,100836.00
2022-10-14T08:23:18.904Z,100834.28
2022-10-14T08:25:53.403Z,100793.97
2022-10-14T08:28:23.272Z,100825.72
2022-10-14T08:30:54.081Z,100830.88
2022-10-14T08:33:23.927Z,100821.50
2022-10-14T08:35:54.826Z,100801.78
2022-10-14T08:38:26.574Z,100824.97
2022-10-14T08:41:10.341Z,100813.84
2022-10-14T08:43:44.364Z,100822.38
2022-10-14T08:46:22.995Z,100824.94
2022-10-14T08:48:57.692Z,100826.63
2022-10-14T08:51:27.937Z,100812.88
2022-10-14T08:54:06.478Z,100830.06
2022-10-14T08:56:40.584Z,100824.94
2022-10-14T08:59:17.500Z,100819.81
2022-10-14T09:01:54.577Z,100818.97
2022-10-14T09:04:24.349Z,100832.69
2022-10-14T09:06:56.677Z,100822.41
2022-10-14T09:09:31.510Z,100826.75
2022-10-14T09:12:07.761Z,100816.44
2022-10-14T09:14:41.154Z,100815.59
2022-10-14T09:17:17.315Z,100808.75
2022-10-14T09:19:52.242Z,100805.31
2022-10-14T09:22:22.488Z,100789.88
2022-10-14T09:24:52.471Z,100813.03
2022-10-14T09:27:25.830Z,100811.25
2022-10-14T09:29:59.726Z,100791.53
2022-10-14T09:32:32.867Z,100801.84
2022-10-14T09:35:03.139Z,100795.88
2022-10-14T09:37:35.370Z,100799.31
2022-10-14T09:40:17.749Z,100777.00
2022-10-14T09:42:53.867Z,100795.88
2022-10-14T09:45:25.443Z,100790.72
2022-10-14T09:47:58.277Z,100786.44
2022-10-14T09:50:36.298Z,100769.25
2022-10-14T09:53:11.032Z,100776.06
2022-10-14T09:55:48.424Z,100759.72
2022-10-14T09:58:25.013Z,100765.63
2022-10-14T10:00:59.011Z,100767.31
2022-10-14T10:03:32.692Z,100762.16
2022-10-14T10:06:05.260Z,100760.47
2022-10-14T10:08:35.832Z,100751.00
2022-10-14T10:11:08.972Z,100743.31
2022-10-14T10:13:45.324Z,100745.84
2022-10-14T10:16:27.250Z,100744.09
2022-10-14T10:19:01.265Z,100743.25
2022-10-14T10:21:33.269Z,100733.84
2022-10-14T10:24:06.087Z,100741.56
2022-10-14T10:26:37.078Z,100731.25
2022-10-14T10:29:11.663Z,100732.06
2022-10-14T10:32:15.325Z,100720.00
2022-10-14T10:35:00.439Z,100728.59
2022-10-14T10:37:33.514Z,100721.84
2022-10-14T10:40:33.115Z,100734.75
2022-10-14T10:43:16.618Z,100720.16
2022-10-14T10:46:00.263Z,100711.56
2022-10-14T10:48:41.174Z,100722.66
2022-10-14T10:51:15.622Z,100720.81
2022-10-14T10:54:02.865Z,100717.38
2022-10-14T10:56:38.918Z,100713.06
2022-10-14T10:59:36.653Z,100688.28
2022-10-14T11:02:38.225Z,100710.63
2022-10-14T11:05:14.664Z,100701.84
2022-10-14T11:08:08.772Z,100693.97
2022-10-14T11:11:02.483Z,100693.06
2022-10-14T11:13:45.403Z,100694.75
2022-10-14T11:16:27.583Z,100691.34
2022-10-14T11:19:11.017Z,100666.50
2022-10-14T11:21:52.135Z,100689.56
2022-10-14T11:24:30.749Z,100690.41
2022-10-14T11:27:10.908Z,100690.41
2022-10-14T11:30:14.829Z,100690.41
2022-10-14T11:32:58.356Z,100673.31
2022-10-14T11:35:40.767Z,100673.31
2022-10-14T11:38:21.516Z,100656.13
2022-10-14T11:40:59.975Z,100666.34
2022-10-14T11:43:39.487Z,100675.69
2022-10-14T11:46:12.806Z,100671.97
2022-10-14T11:48:48.470Z,100668.13
2022-10-14T11:51:26.333Z,100660.00
2022-10-14T11:54:03.607Z,100659.66
2022-10-14T11:56:45.860Z,100652.06
2022-10-14T11:59:24.010Z,100643.72
2022-10-14T12:02:01.442Z,100635.16
2022-10-14T12:04:36.567Z,100632.34
2022-10-14T12:07:15.895Z,100627.13
2022-10-14T12:09:57.258Z,100600.44
2022-10-14T12:12:31.980Z,100633.63
2022-10-14T12:15:07.079Z,100632.63
2022-10-14T12:17:41.509Z,100629.91
2022-10-14T12:20:22.479Z,100626.47
2022-10-14T12:22:55.882Z,100632.63
2022-10-14T12:25:30.665Z,100623.16
2022-10-14T12:28:00.914Z,100628.25
2022-10-14T12:30:38.218Z,100622.22
2022-10-14T12:33:10.319Z,100611.91
2022-10-14T12:35:54.447Z,100589.66
2022-10-14T12:38:29.552Z,100610.50
2022-10-14T12:41:32.283Z,100604.56
2022-10-14T12:44:04.133Z,100603.72
2022-10-14T12:46:35.636Z,100578.88
2022-10-14T12:49:05.529Z,100588.13
2022-10-14T12:51:35.415Z,100576.78
2022-10-14T12:54:17.782Z,100573.28
2022-10-14T12:56:59.093Z,100571.84
2022-10-14T12:59:33.078Z,100570.63
2022-10-14T13:02:08.139Z,100554.41
2022-10-14T13:04:40.018Z,100562.88
2022-10-14T13:07:47.349Z,100552.38
2022-10-14T13:10:48.547Z,100550.88
2022-10-14T13:13:52.713Z,100542.66
2022-10-14T13:17:13.414Z,100544.38
2022-10-14T13:19:55.655Z,100537.47
2022-10-14T13:22:42.311Z,100527.84
2022-10-14T13:25:23.489Z,100534.72
2022-10-14T13:28:05.433Z,100533.03
2022-10-14T13:30:49.179Z,100526.16
2022-10-14T13:33:25.437Z,100532.16
2022-10-14T13:36:06.726Z,100521.59
2022-10-14T13:38:40.733Z,100504.44
2022-10-14T13:41:29.721Z,100501.09
2022-10-14T13:44:02.639Z,100504.69
2022-10-14T13:46:38.195Z,100499.38
2022-10-14T13:49:20.742Z,100493.50
2022-10-14T13:51:58.332Z,100501.47
2022-10-14T13:54:32.111Z,100501.59
2022-10-14T13:57:38.359Z,100506.81
2022-10-14T14:02:53.359Z,100499.59
2022-10-14T14:05:38.881Z,100492.56
2022-10-14T14:11:18.188Z,100481.97
2022-10-14T14:14:01.055Z,100475.78
2022-10-14T14:16:36.560Z,100464.56
2022-10-14T14:19:09.680Z,100456.03
2022-10-14T14:21:42.125Z,100463.72
2022-10-14T14:24:25.052Z,100454.25
2022-10-14T14:26:59.193Z,100449.97
2022-10-14T14:29:32.067Z,100422.66
2022-10-14T14:32:07.935Z,100426.78
2022-10-14T14:34:41.221Z,100443.06
2022-10-14T14:37:40.307Z,100436.94
2022-10-14T14:40:20.532Z,100432.63
2022-10-14T14:42:56.054Z,100423.25
2022-10-14T14:45:29.210Z,100419.81
2022-10-14T14:48:04.671Z,100419.13
2022-10-14T14:50:38.590Z,100416.84
2022-10-14T14:53:13.635Z,100421.50
2022-10-14T14:56:02.567Z,100418.75
2022-10-14T14:58:37.138Z,100419.53
2022-10-14T15:01:10.562Z,100408.56
2022-10-14T15:04:11.946Z,100373.44
2022-10-14T15:06:51.607Z,100387.94
2022-10-14T15:09:26.763Z,100413.44
2022-10-14T15:12:00.467Z,100417.56
2022-10-14T15:14:33.002Z,100407.28
2022-10-14T15:17:06.550Z,100408.91
2022-10-14T15:19:38.770Z,100408.09
2022-10-14T15:22:29.851Z,100404.63
2022-10-14T15:25:13.078Z,100410.66
2022-10-14T15:27:51.953Z,100410.69
2022-10-14T15:30:35.038Z,100408.13
2022-10-14T15:33:16.392Z,100400.75
2022-10-14T15:35:47.707Z,100415.56
2022-10-14T15:38:20.860Z,100412.47
2022-10-14T15:40:52.665Z,100391.97
2022-10-14T15:43:31.790Z,100392.94
2022-10-14T15:46:15.296Z,100402.34
2022-10-14T15:48:55.656Z,100386.13
2022-10-14T15:51:26.244Z,100398.22
2022-10-14T15:53:56.050Z,100386.50
2022-10-14T15:56:26.260Z,100401.97
2022-10-14T15:58:59.589Z,100390.88
2022-10-14T16:01:29.574Z,100390.88
2022-10-14T16:03:59.453Z,100383.88
2022-10-14T16:06:31.062Z,100380.72
2022-10-14T16:09:00.920Z,100360.38
2022-10-14T16:11:32.639Z,100370.66
2022-10-14T16:14:05.189Z,100368.16
2022-10-14T16:16:38.974Z,100378.53
2022-10-14T16:19:08.729Z,100377.78
2022-10-14T16:21:39.043Z,100335.88
2022-10-14T16:24:17.565Z,100374.34
2022-10-14T16:26:48.959Z,100368.47
2022-10-14T16:29:24.076Z,100374.47
2022-10-14T16:31:55.420Z,100364.22
2022-10-14T16:34:26.634Z,100360.84
2022-10-14T16:36:57.378Z,100356.56
2022-10-14T16:39:27.076Z,100360.84
2022-10-14T16:41:57.061Z,100349.75
2022-10-14T16:44:29.426Z,100344.63
2022-10-14T16:47:13.426Z,100356.63
2022-10-14T16:49:43.473Z,100313.06
2022-10-14T16:52:14.587Z,100348.13
2022-10-14T16:54:46.502Z,100336.97
2022-10-14T16:57:16.670Z,100315.59
2022-10-14T16:59:50.015Z,100350.75
2022-10-14T17:02:21.488Z,100361.97
2022-10-14T17:04:52.584Z,100351.78
2022-10-14T17:07:22.253Z,100359.47
2022-10-14T17:09:52.002Z,100352.66
2022-10-14T17:12:22.969Z,100339.84
2022-10-14T17:14:56.903Z,100338.97
2022-10-14T17:17:27.745Z,100334.69
2022-10-14T17:19:59.420Z,100346.69
2022-10-14T17:22:29.846Z,100357.81
2022-10-14T17:25:00.870Z,100345.84
2022-10-14T17:27:31.591Z,100339.81
2022-10-14T17:30:04.944Z,100321.84
2022-10-14T17:32:34.665Z,100332.91
2022-10-14T17:35:04.440Z,100328.63
2022-10-14T17:37:34.135Z,100332.84
2022-10-14T17:40:04.900Z,100331.94
2022-10-14T17:42:35.591Z,100325.06
2022-10-14T17:45:10.538Z,100330.22
2022-10-14T17:47:41.355Z,100308.84
2022-10-14T17:50:13.162Z,100302.81
2022-10-14T17:52:43.889Z,100273.78
2022-10-14T17:55:13.697Z,100319.03
2022-10-14T17:57:44.423Z,100308.75
2022-10-14T18:00:18.689Z,100314.75
2022-10-14T18:02:48.348Z,100299.31
2022-10-14T18:05:18.201Z,100283.91
2022-10-14T18:07:48.964Z,100294.19
2022-10-14T18:10:19.815Z,100286.56
2022-10-14T18:12:50.481Z,100279.75
2022-10-14T18:15:23.825Z,100294.25
2022-10-14T18:17:53.476Z,100308.81
2022-10-14T18:20:24.326Z,100308.00
2022-10-14T18:22:54.359Z,100308.91
2022-10-14T18:25:25.053Z,100320.91
2022-10-14T18:27:55.783Z,100320.03
2022-10-14T18:30:28.598Z,100293.47
2022-10-14T18:32:59.497Z,100317.44
2022-10-14T18:35:29.217Z,100296.91
2022-10-14T18:37:59.955Z,100283.13
2022-10-14T18:40:30.690Z,100276.38
2022-10-14T18:43:04.130Z,100284.06
2022-10-14T18:45:39.064Z,100269.47
2022-10-14T18:48:11.652Z,100293.34
2022-10-14T18:50:42.292Z,100287.41
2022-10-14T18:53:12.954Z,100282.28
2022-10-14T18:55:44.734Z,100279.72
2022-10-14T18:58:14.459Z,100270.34
2022-10-14T19:00:47.038Z,100276.25
2022-10-14T19:03:17.121Z,100284.03
2022-10-14T19:05:47.787Z,100269.56
2022-10-14T19:08:17.484Z,100264.44
2022-10-14T19:10:48.198Z,100261.88
2022-10-14T19:13:18.953Z,100260.13
2022-10-14T19:16:02.355Z,100279.81
2022-10-14T19:18:32.251Z,100274.75
2022-10-14T19:21:09.146Z,100253.38
2022-10-14T19:23:39.803Z,100285.00
2022-10-14T19:26:13.528Z,100287.59
2022-10-14T19:28:44.846Z,100288.44
2022-10-14T19:31:20.575Z,100282.44
2022-10-14T19:33:51.090Z,100287.59
2022-10-14T19:36:25.068Z,100284.13
2022-10-14T19:38:57.619Z,100264.44
2022-10-14T19:41:28.252Z,100279.91
2022-10-14T19:43:59.952Z,100271.28
2022-10-14T19:46:32.739Z,100262.75
2022-10-14T19:49:04.944Z,100255.88
2022-10-14T19:51:37.059Z,100258.41
2022-10-14T19:54:08.200Z,100233.56
2022-10-14T19:56:37.888Z,100187.47
2022-10-14T19:59:07.819Z,100227.59
2022-10-14T20:01:41.280Z,100248.00
2022-10-14T20:04:11.204Z,100244.56
2022-10-14T20:06:42.932Z,100218.69
2022-10-14T20:09:15.211Z,100240.88
2022-10-14T20:11:45.703Z,100216.16
2022-10-14T20:14:18.499Z,100223.00
2022-10-14T20:16:53.670Z,100225.47
2022-10-14T20:19:27.792Z,100225.50
2022-10-14T20:22:01.644Z,100211.84
2022-10-14T20:24:31.481Z,100223.03
2022-10-14T20:27:01.224Z,100215.31
2022-10-14T20:29:31.036Z,100229.00
2022-10-14T20:32:04.483Z,100223.72
2022-10-14T20:34:35.361Z,100222.84
2022-10-14T20:37:06.476Z,100227.13
2022-10-14T20:39:36.369Z,100220.38
2022-10-14T20:42:08.123Z,100219.50
2022-10-14T20:44:39.009Z,100222.81
2022-10-14T20:47:12.500Z,100225.47
2022-10-14T20:49:42.912Z,100210.06
2022-10-14T20:52:12.775Z,100207.53
2022-10-14T20:54:43.670Z,100226.38
2022-10-14T20:57:14.462Z,100222.13
2022-10-14T20:59:44.241Z,100187.13
2022-10-14T21:02:20.959Z,100229.81
2022-10-14T21:04:53.090Z,100208.38
2022-10-14T21:07:24.716Z,100219.47
2022-10-14T21:09:55.776Z,100210.94
2022-10-14T21:12:27.687Z,100211.78
2022-10-14T21:14:58.475Z,100210.03
2022-10-14T21:17:31.792Z,100198.97
2022-10-14T21:20:02.620Z,100152.06
2022-10-14T21:22:32.632Z,100186.22
2022-10-14T21:25:03.476Z,100203.28
2022-10-14T21:27:33.320Z,100169.16
2022-10-14T21:30:04.112Z,100199.03
2022-10-14T21:32:36.616Z,100211.91
2022-10-14T21:35:08.908Z,100208.50
2022-10-14T21:37:38.666Z,100211.94
2022-10-14T21:40:10.270Z,100228.28
2022-10-14T21:42:41.147Z,100169.25
2022-10-14T21:45:11.508Z,100199.06
2022-10-14T21:47:43.859Z,100193.13
2022-10-14T21:50:14.578Z,100206.75
2022-10-14T21:52:44.422Z,100197.31
2022-10-14T21:55:14.216Z,100201.63
2022-10-14T21:57:45.066Z,100211.84
2022-10-14T22:00:16.088Z,100210.16
2022-10-14T22:02:49.547Z,100200.75
2022-10-14T22:05:19.314Z,100197.31
2022-10-14T22:07:49.292Z,100199.97
2022-10-14T22:10:31.672Z,100182.84
2022-10-14T22:13:02.116Z,100196.47
2022-10-14T22:15:31.830Z,100196.47
2022-10-14T22:18:04.263Z,100199.88
2022-10-14T22:20:34.169Z,100189.69
2022-10-14T22:23:03.980Z,100193.94
2022-10-14T22:25:35.816Z,100207.63
2022-10-14T22:28:06.867Z,100196.50
2022-10-14T22:30:37.459Z,100198.19
2022-10-14T22:33:09.911Z,100198.13
2022-10-14T22:35:39.723Z,100207.56
2022-10-14T22:38:09.439Z,100205.84
2022-10-14T22:40:39.307Z,100206.81
2022-10-14T22:43:09.074Z,100213.66
2022-10-14T22:45:39.052Z,100213.66
2022-10-14T22:48:11.563Z,100210.19
2022-10-14T22:50:41.261Z,100209.41
2022-10-14T22:53:10.979Z,100195.78
2022-10-14T22:55:40.682Z,100170.97
2022-10-14T22:58:10.407Z,100211.09
2022-10-14T23:00:40.185Z,100224.66
2022-10-14T23:03:12.620Z,100209.28
2022-10-14T23:05:42.404Z,100220.44
2022-10-14T23:08:14.760Z,100209.31
2022-10-14T23:10:45.093Z,100196.56
2022-10-14T23:13:14.859Z,100211.16
2022-10-14T23:15:44.574Z,100205.22
2022-10-14T23:18:17.603Z,100206.97
2022-10-14T23:20:47.327Z,100207.84
2022-10-14T23:23:17.026Z,100195.91
2022-10-14T23:25:47.614Z,100200.16
2022-10-14T23:28:17.425Z,100204.47
2022-10-14T23:30:47.216Z,100201.13
2022-10-14T23:33:20.207Z,100208.75
2022-10-14T23:35:49.942Z,100202.75
2022-10-14T23:38:19.675Z,100197.69
2022-10-14T23:40:49.373Z,100201.09
2022-10-14T23:43:19.431Z,100203.66
2022-10-14T23:45:49.173Z,100199.38
2022-10-14T23:48:21.563Z,100208.75
2022-10-14T23:50:51.289Z,100213.06
2022-10-14T23:53:21.315Z,100205.38
2022-10-14T23:55:51.742Z,100203.69
2022-10-14T23:58:21.509Z,100200.25
